Avila Beach, California
Current Conditions -  °F | °C
As of 5:56 PM on Friday 28 Nov 2014 (Local Time) from KSBP Reporting Station
Clear Clear  
Wind Chill: 13°   Ceiling: Unl
Heat Index: 13°   Visibility: 10mi
Dew Point: 11°   Wind: 7mph
Humidity: 89%   Direction: 310°NW
Pressure: 29.91"   Gusts: NA
Location:  35.18°N, 120.73°W
Report Text: KSBP 290156Z 31006KT 10SM CLR 13/11 A2991 RMK AO2 SLP130 T01280111
Loading
Personal Weather Stations






























Interactive Weather Map New forecast layout! Learn more

10-Day Weather Forecast

Advertisements
Track Severe Weather on mobile